sensor_id;sensor_type;location;lat;lon;timestamp;P1;durP1;ratioP1;P2;durP2;ratioP2
72639;SDS011;60683;51.730;8.762;2023-07-24T00:01:46;2.60;;;1.17;;
72639;SDS011;60683;51.730;8.762;2023-07-24T00:04:13;2.75;;;1.35;;
72639;SDS011;60683;51.730;8.762;2023-07-24T00:06:40;2.92;;;1.00;;
72639;SDS011;60683;51.730;8.762;2023-07-24T00:09:07;3.00;;;1.10;;
72639;SDS011;60683;51.730;8.762;2023-07-24T00:11:35;3.05;;;1.00;;
72639;SDS011;60683;51.730;8.762;2023-07-24T00:14:03;2.65;;;1.02;;
72639;SDS011;60683;51.730;8.762;2023-07-24T00:16:31;3.67;;;1.40;;
72639;SDS011;60683;51.730;8.762;2023-07-24T00:19:00;2.95;;;1.20;;
72639;SDS011;60683;51.730;8.762;2023-07-24T00:21:27;2.92;;;1.30;;
72639;SDS011;60683;51.730;8.762;2023-07-24T00:23:55;3.28;;;1.30;;
72639;SDS011;60683;51.730;8.762;2023-07-24T00:26:23;3.50;;;1.42;;
72639;SDS011;60683;51.730;8.762;2023-07-24T00:28:50;4.70;;;1.25;;
72639;SDS011;60683;51.730;8.762;2023-07-24T00:31:18;3.28;;;1.38;;
72639;SDS011;60683;51.730;8.762;2023-07-24T00:33:45;4.03;;;1.33;;
72639;SDS011;60683;51.730;8.762;2023-07-24T00:36:14;3.30;;;1.33;;
72639;SDS011;60683;51.730;8.762;2023-07-24T00:38:41;3.10;;;1.30;;
72639;SDS011;60683;51.730;8.762;2023-07-24T00:41:09;3.72;;;1.30;;
72639;SDS011;60683;51.730;8.762;2023-07-24T00:43:36;2.80;;;1.30;;
72639;SDS011;60683;51.730;8.762;2023-07-24T00:46:04;3.53;;;1.58;;
72639;SDS011;60683;51.730;8.762;2023-07-24T00:48:31;3.10;;;1.33;;
72639;SDS011;60683;51.730;8.762;2023-07-24T00:50:59;2.45;;;1.20;;
72639;SDS011;60683;51.730;8.762;2023-07-24T00:53:28;3.67;;;1.48;;
72639;SDS011;60683;51.730;8.762;2023-07-24T00:55:56;3.65;;;1.60;;
72639;SDS011;60683;51.730;8.762;2023-07-24T00:58:23;3.30;;;1.40;;
72639;SDS011;60683;51.730;8.762;2023-07-24T01:00:51;3.60;;;1.58;;
72639;SDS011;60683;51.730;8.762;2023-07-24T01:03:18;3.80;;;1.73;;
72639;SDS011;60683;51.730;8.762;2023-07-24T01:05:46;5.13;;;1.70;;
72639;SDS011;60683;51.730;8.762;2023-07-24T01:08:13;4.00;;;1.80;;
72639;SDS011;60683;51.730;8.762;2023-07-24T01:10:43;3.83;;;1.50;;
72639;SDS011;60683;51.730;8.762;2023-07-24T01:13:14;4.60;;;2.20;;
72639;SDS011;60683;51.730;8.762;2023-07-24T01:15:48;5.03;;;1.63;;
72639;SDS011;60683;51.730;8.762;2023-07-24T01:18:23;4.03;;;1.67;;
72639;SDS011;60683;51.730;8.762;2023-07-24T01:20:53;3.45;;;1.50;;
72639;SDS011;60683;51.730;8.762;2023-07-24T01:23:27;3.92;;;1.90;;
72639;SDS011;60683;51.730;8.762;2023-07-24T01:26:06;4.43;;;1.73;;
72639;SDS011;60683;51.730;8.762;2023-07-24T01:28:34;3.10;;;1.42;;
72639;SDS011;60683;51.730;8.762;2023-07-24T01:31:02;3.70;;;1.50;;
72639;SDS011;60683;51.730;8.762;2023-07-24T01:33:29;4.40;;;1.90;;
72639;SDS011;60683;51.730;8.762;2023-07-24T01:35:59;3.80;;;1.60;;
72639;SDS011;60683;51.730;8.762;2023-07-24T01:38:28;4.45;;;1.73;;
72639;SDS011;60683;51.730;8.762;2023-07-24T01:40:58;3.63;;;1.58;;
72639;SDS011;60683;51.730;8.762;2023-07-24T01:43:28;4.03;;;1.58;;
72639;SDS011;60683;51.730;8.762;2023-07-24T01:45:56;4.60;;;1.80;;
72639;SDS011;60683;51.730;8.762;2023-07-24T01:48:23;3.65;;;1.50;;
72639;SDS011;60683;51.730;8.762;2023-07-24T01:50:51;4.82;;;1.80;;
72639;SDS011;60683;51.730;8.762;2023-07-24T01:53:18;4.30;;;1.48;;
72639;SDS011;60683;51.730;8.762;2023-07-24T01:55:46;5.50;;;1.88;;
72639;SDS011;60683;51.730;8.762;2023-07-24T01:58:13;4.68;;;1.67;;
72639;SDS011;60683;51.730;8.762;2023-07-24T02:00:43;4.53;;;1.85;;
72639;SDS011;60683;51.730;8.762;2023-07-24T02:03:10;5.18;;;1.70;;
72639;SDS011;60683;51.730;8.762;2023-07-24T02:05:37;3.67;;;1.70;;
72639;SDS011;60683;51.730;8.762;2023-07-24T02:08:05;4.10;;;1.60;;
72639;SDS011;60683;51.730;8.762;2023-07-24T02:10:36;5.50;;;2.03;;
72639;SDS011;60683;51.730;8.762;2023-07-24T02:13:03;4.03;;;1.83;;
72639;SDS011;60683;51.730;8.762;2023-07-24T02:15:33;4.28;;;1.65;;
72639;SDS011;60683;51.730;8.762;2023-07-24T02:18:02;4.88;;;2.00;;
72639;SDS011;60683;51.730;8.762;2023-07-24T02:20:29;4.15;;;1.60;;
72639;SDS011;60683;51.730;8.762;2023-07-24T02:22:56;3.78;;;1.98;;
72639;SDS011;60683;51.730;8.762;2023-07-24T02:25:24;3.67;;;1.65;;
72639;SDS011;60683;51.730;8.762;2023-07-24T02:27:51;4.40;;;1.85;;
72639;SDS011;60683;51.730;8.762;2023-07-24T02:30:18;3.53;;;1.65;;
72639;SDS011;60683;51.730;8.762;2023-07-24T02:32:46;5.32;;;2.13;;
72639;SDS011;60683;51.730;8.762;2023-07-24T02:35:15;5.03;;;1.65;;
72639;SDS011;60683;51.730;8.762;2023-07-24T02:37:44;3.05;;;1.50;;
72639;SDS011;60683;51.730;8.762;2023-07-24T02:40:11;3.38;;;1.65;;
72639;SDS011;60683;51.730;8.762;2023-07-24T02:42:39;7.32;;;1.90;;
72639;SDS011;60683;51.730;8.762;2023-07-24T02:45:07;4.05;;;1.63;;
72639;SDS011;60683;51.730;8.762;2023-07-24T02:47:36;5.97;;;1.67;;
72639;SDS011;60683;51.730;8.762;2023-07-24T02:50:04;4.38;;;1.65;;
72639;SDS011;60683;51.730;8.762;2023-07-24T02:52:33;4.50;;;2.00;;
72639;SDS011;60683;51.730;8.762;2023-07-24T02:55:01;3.58;;;1.50;;
72639;SDS011;60683;51.730;8.762;2023-07-24T02:57:28;4.28;;;1.77;;
72639;SDS011;60683;51.730;8.762;2023-07-24T02:59:55;3.70;;;1.55;;
72639;SDS011;60683;51.730;8.762;2023-07-24T03:02:22;3.30;;;1.45;;
72639;SDS011;60683;51.730;8.762;2023-07-24T03:04:50;3.80;;;1.48;;
72639;SDS011;60683;51.730;8.762;2023-07-24T03:07:17;4.10;;;1.70;;
72639;SDS011;60683;51.730;8.762;2023-07-24T03:09:46;3.40;;;1.67;;
72639;SDS011;60683;51.730;8.762;2023-07-24T03:12:13;3.88;;;1.48;;
72639;SDS011;60683;51.730;8.762;2023-07-24T03:14:41;4.82;;;2.00;;
72639;SDS011;60683;51.730;8.762;2023-07-24T03:17:08;5.40;;;1.83;;
72639;SDS011;60683;51.730;8.762;2023-07-24T03:19:36;4.40;;;1.92;;
72639;SDS011;60683;51.730;8.762;2023-07-24T03:22:03;3.40;;;1.35;;
72639;SDS011;60683;51.730;8.762;2023-07-24T03:24:30;4.63;;;1.95;;
72639;SDS011;60683;51.730;8.762;2023-07-24T03:26:59;6.57;;;2.00;;
72639;SDS011;60683;51.730;8.762;2023-07-24T03:29:27;5.05;;;2.10;;
72639;SDS011;60683;51.730;8.762;2023-07-24T03:31:54;4.00;;;1.83;;
72639;SDS011;60683;51.730;8.762;2023-07-24T03:34:22;4.47;;;2.00;;
72639;SDS011;60683;51.730;8.762;2023-07-24T03:36:49;5.95;;;1.75;;
72639;SDS011;60683;51.730;8.762;2023-07-24T03:39:17;4.82;;;2.00;;
72639;SDS011;60683;51.730;8.762;2023-07-24T03:41:44;4.72;;;1.83;;
72639;SDS011;60683;51.730;8.762;2023-07-24T03:44:13;6.00;;;1.92;;
72639;SDS011;60683;51.730;8.762;2023-07-24T03:46:40;4.80;;;2.22;;
72639;SDS011;60683;51.730;8.762;2023-07-24T03:49:07;5.10;;;2.38;;
72639;SDS011;60683;51.730;8.762;2023-07-24T03:51:35;6.40;;;1.92;;
72639;SDS011;60683;51.730;8.762;2023-07-24T03:54:02;5.72;;;2.47;;
72639;SDS011;60683;51.730;8.762;2023-07-24T03:56:29;6.40;;;2.13;;
72639;SDS011;60683;51.730;8.762;2023-07-24T03:58:57;4.25;;;2.13;;
72639;SDS011;60683;51.730;8.762;2023-07-24T04:01:26;4.38;;;1.77;;
72639;SDS011;60683;51.730;8.762;2023-07-24T04:03:53;4.72;;;1.75;;
72639;SDS011;60683;51.730;8.762;2023-07-24T04:06:21;5.70;;;2.10;;
72639;SDS011;60683;51.730;8.762;2023-07-24T04:08:49;5.88;;;2.35;;
72639;SDS011;60683;51.730;8.762;2023-07-24T04:11:16;5.75;;;1.90;;
72639;SDS011;60683;51.730;8.762;2023-07-24T04:13:44;4.57;;;2.15;;
72639;SDS011;60683;51.730;8.762;2023-07-24T04:16:11;4.28;;;2.13;;
72639;SDS011;60683;51.730;8.762;2023-07-24T04:18:40;5.28;;;1.92;;
72639;SDS011;60683;51.730;8.762;2023-07-24T04:21:07;4.55;;;1.85;;
72639;SDS011;60683;51.730;8.762;2023-07-24T04:23:34;5.03;;;2.10;;
72639;SDS011;60683;51.730;8.762;2023-07-24T04:26:01;4.72;;;1.83;;
72639;SDS011;60683;51.730;8.762;2023-07-24T04:28:29;4.85;;;1.90;;
72639;SDS011;60683;51.730;8.762;2023-07-24T04:30:59;4.93;;;1.88;;
72639;SDS011;60683;51.730;8.762;2023-07-24T04:33:26;4.97;;;2.10;;
72639;SDS011;60683;51.730;8.762;2023-07-24T04:35:55;5.20;;;2.30;;
72639;SDS011;60683;51.730;8.762;2023-07-24T04:38:23;5.22;;;2.17;;
72639;SDS011;60683;51.730;8.762;2023-07-24T04:40:50;5.80;;;2.13;;
72639;SDS011;60683;51.730;8.762;2023-07-24T04:43:18;3.88;;;1.70;;
72639;SDS011;60683;51.730;8.762;2023-07-24T04:45:45;5.25;;;2.17;;
72639;SDS011;60683;51.730;8.762;2023-07-24T04:48:13;5.63;;;2.45;;
72639;SDS011;60683;51.730;8.762;2023-07-24T04:50:40;4.90;;;2.17;;
72639;SDS011;60683;51.730;8.762;2023-07-24T04:53:09;6.32;;;2.13;;
72639;SDS011;60683;51.730;8.762;2023-07-24T04:55:36;5.97;;;2.22;;
72639;SDS011;60683;51.730;8.762;2023-07-24T04:58:03;5.18;;;2.28;;
72639;SDS011;60683;51.730;8.762;2023-07-24T05:00:31;6.50;;;2.10;;
72639;SDS011;60683;51.730;8.762;2023-07-24T05:02:58;6.95;;;2.17;;
72639;SDS011;60683;51.730;8.762;2023-07-24T05:05:28;5.72;;;1.85;;
72639;SDS011;60683;51.730;8.762;2023-07-24T05:07:58;4.57;;;1.95;;
72639;SDS011;60683;51.730;8.762;2023-07-24T05:10:26;5.50;;;1.90;;
72639;SDS011;60683;51.730;8.762;2023-07-24T05:12:54;4.38;;;2.20;;
72639;SDS011;60683;51.730;8.762;2023-07-24T05:15:22;5.70;;;2.20;;
72639;SDS011;60683;51.730;8.762;2023-07-24T05:17:50;7.03;;;1.90;;
72639;SDS011;60683;51.730;8.762;2023-07-24T05:20:17;5.75;;;2.20;;
72639;SDS011;60683;51.730;8.762;2023-07-24T05:22:44;5.90;;;2.13;;
72639;SDS011;60683;51.730;8.762;2023-07-24T05:25:11;5.50;;;2.53;;
72639;SDS011;60683;51.730;8.762;2023-07-24T05:27:40;4.30;;;1.70;;
72639;SDS011;60683;51.730;8.762;2023-07-24T05:30:08;5.55;;;2.50;;
72639;SDS011;60683;51.730;8.762;2023-07-24T05:32:35;4.70;;;2.00;;
72639;SDS011;60683;51.730;8.762;2023-07-24T05:35:03;6.70;;;2.10;;
72639;SDS011;60683;51.730;8.762;2023-07-24T05:37:31;4.80;;;2.03;;
72639;SDS011;60683;51.730;8.762;2023-07-24T05:39:58;5.20;;;2.13;;
72639;SDS011;60683;51.730;8.762;2023-07-24T05:42:26;6.25;;;2.03;;
72639;SDS011;60683;51.730;8.762;2023-07-24T05:44:54;7.95;;;2.42;;
72639;SDS011;60683;51.730;8.762;2023-07-24T05:47:22;5.78;;;2.40;;
72639;SDS011;60683;51.730;8.762;2023-07-24T05:49:49;4.57;;;2.08;;
72639;SDS011;60683;51.730;8.762;2023-07-24T05:52:17;4.85;;;2.00;;
72639;SDS011;60683;51.730;8.762;2023-07-24T05:54:44;4.47;;;1.67;;
72639;SDS011;60683;51.730;8.762;2023-07-24T05:57:12;4.70;;;2.25;;
72639;SDS011;60683;51.730;8.762;2023-07-24T05:59:39;4.32;;;1.85;;
72639;SDS011;60683;51.730;8.762;2023-07-24T06:02:08;4.65;;;1.80;;
72639;SDS011;60683;51.730;8.762;2023-07-24T06:04:35;5.68;;;2.35;;
72639;SDS011;60683;51.730;8.762;2023-07-24T06:07:03;5.28;;;2.30;;
72639;SDS011;60683;51.730;8.762;2023-07-24T06:09:30;4.60;;;2.28;;
72639;SDS011;60683;51.730;8.762;2023-07-24T06:11:58;5.57;;;2.22;;
72639;SDS011;60683;51.730;8.762;2023-07-24T06:14:25;5.32;;;1.92;;
72639;SDS011;60683;51.730;8.762;2023-07-24T06:16:52;8.50;;;2.70;;
72639;SDS011;60683;51.730;8.762;2023-07-24T06:19:21;6.00;;;2.20;;
72639;SDS011;60683;51.730;8.762;2023-07-24T06:21:49;5.65;;;2.30;;
72639;SDS011;60683;51.730;8.762;2023-07-24T06:24:16;9.15;;;2.38;;
72639;SDS011;60683;51.730;8.762;2023-07-24T06:26:44;4.65;;;1.70;;
72639;SDS011;60683;51.730;8.762;2023-07-24T06:29:11;8.38;;;2.42;;
72639;SDS011;60683;51.730;8.762;2023-07-24T06:31:40;5.28;;;2.10;;
72639;SDS011;60683;51.730;8.762;2023-07-24T06:34:08;7.05;;;2.63;;
72639;SDS011;60683;51.730;8.762;2023-07-24T06:36:36;6.72;;;2.55;;
72639;SDS011;60683;51.730;8.762;2023-07-24T06:39:04;5.20;;;2.28;;
72639;SDS011;60683;51.730;8.762;2023-07-24T06:41:31;5.10;;;2.00;;
72639;SDS011;60683;51.730;8.762;2023-07-24T06:43:59;4.85;;;2.08;;
72639;SDS011;60683;51.730;8.762;2023-07-24T06:46:26;8.50;;;2.30;;
72639;SDS011;60683;51.730;8.762;2023-07-24T06:48:53;5.82;;;2.25;;
72639;SDS011;60683;51.730;8.762;2023-07-24T06:51:21;4.65;;;2.15;;
72639;SDS011;60683;51.730;8.762;2023-07-24T06:53:49;4.28;;;1.75;;
72639;SDS011;60683;51.730;8.762;2023-07-24T06:56:17;5.38;;;2.17;;
72639;SDS011;60683;51.730;8.762;2023-07-24T06:58:44;4.63;;;1.60;;
72639;SDS011;60683;51.730;8.762;2023-07-24T07:01:12;4.63;;;2.08;;
72639;SDS011;60683;51.730;8.762;2023-07-24T07:03:39;5.85;;;2.20;;
72639;SDS011;60683;51.730;8.762;2023-07-24T07:06:07;5.22;;;2.33;;
72639;SDS011;60683;51.730;8.762;2023-07-24T07:08:35;6.05;;;2.35;;
72639;SDS011;60683;51.730;8.762;2023-07-24T07:11:05;11.43;;;3.15;;
72639;SDS011;60683;51.730;8.762;2023-07-24T07:13:32;5.88;;;2.30;;
72639;SDS011;60683;51.730;8.762;2023-07-24T07:16:00;5.72;;;2.05;;
72639;SDS011;60683;51.730;8.762;2023-07-24T07:18:27;5.72;;;2.20;;
72639;SDS011;60683;51.730;8.762;2023-07-24T07:20:55;8.45;;;2.75;;
72639;SDS011;60683;51.730;8.762;2023-07-24T07:23:23;7.90;;;3.15;;
72639;SDS011;60683;51.730;8.762;2023-07-24T07:25:50;7.85;;;3.15;;
72639;SDS011;60683;51.730;8.762;2023-07-24T07:28:19;6.47;;;2.80;;
72639;SDS011;60683;51.730;8.762;2023-07-24T07:30:47;3.55;;;1.88;;
72639;SDS011;60683;51.730;8.762;2023-07-24T07:33:14;4.53;;;2.28;;
72639;SDS011;60683;51.730;8.762;2023-07-24T07:35:42;4.85;;;2.03;;
72639;SDS011;60683;51.730;8.762;2023-07-24T07:38:10;5.35;;;2.42;;
72639;SDS011;60683;51.730;8.762;2023-07-24T07:40:37;5.68;;;1.80;;
72639;SDS011;60683;51.730;8.762;2023-07-24T07:43:05;4.82;;;1.95;;
72639;SDS011;60683;51.730;8.762;2023-07-24T07:45:34;5.78;;;2.25;;
72639;SDS011;60683;51.730;8.762;2023-07-24T07:48:01;3.90;;;2.13;;
72639;SDS011;60683;51.730;8.762;2023-07-24T07:50:28;5.40;;;1.60;;
72639;SDS011;60683;51.730;8.762;2023-07-24T07:52:55;5.85;;;1.70;;
72639;SDS011;60683;51.730;8.762;2023-07-24T07:55:23;3.78;;;1.45;;
72639;SDS011;60683;51.730;8.762;2023-07-24T07:57:50;3.38;;;1.40;;
72639;SDS011;60683;51.730;8.762;2023-07-24T08:00:18;4.20;;;1.50;;
72639;SDS011;60683;51.730;8.762;2023-07-24T08:02:47;3.78;;;1.40;;
72639;SDS011;60683;51.730;8.762;2023-07-24T08:05:14;3.45;;;1.48;;
72639;SDS011;60683;51.730;8.762;2023-07-24T08:07:42;4.28;;;1.80;;
72639;SDS011;60683;51.730;8.762;2023-07-24T08:10:09;4.18;;;1.88;;
72639;SDS011;60683;51.730;8.762;2023-07-24T08:12:37;5.28;;;2.17;;
72639;SDS011;60683;51.730;8.762;2023-07-24T08:15:05;5.18;;;2.05;;
72639;SDS011;60683;51.730;8.762;2023-07-24T08:17:33;4.72;;;2.40;;
72639;SDS011;60683;51.730;8.762;2023-07-24T08:20:02;4.30;;;2.30;;
72639;SDS011;60683;51.730;8.762;2023-07-24T08:22:29;4.88;;;1.85;;
72639;SDS011;60683;51.730;8.762;2023-07-24T08:24:57;5.70;;;2.50;;
72639;SDS011;60683;51.730;8.762;2023-07-24T08:27:24;9.48;;;2.80;;
72639;SDS011;60683;51.730;8.762;2023-07-24T08:29:52;6.00;;;3.00;;
72639;SDS011;60683;51.730;8.762;2023-07-24T08:32:20;6.53;;;2.60;;
72639;SDS011;60683;51.730;8.762;2023-07-24T08:34:47;5.25;;;2.20;;
72639;SDS011;60683;51.730;8.762;2023-07-24T08:37:16;6.15;;;2.80;;
72639;SDS011;60683;51.730;8.762;2023-07-24T08:39:43;6.13;;;2.70;;
72639;SDS011;60683;51.730;8.762;2023-07-24T08:42:11;5.85;;;2.83;;
72639;SDS011;60683;51.730;8.762;2023-07-24T08:44:39;5.22;;;2.75;;
72639;SDS011;60683;51.730;8.762;2023-07-24T08:47:09;7.03;;;3.20;;
72639;SDS011;60683;51.730;8.762;2023-07-24T08:49:38;8.00;;;3.00;;
72639;SDS011;60683;51.730;8.762;2023-07-24T08:52:07;4.88;;;2.53;;
72639;SDS011;60683;51.730;8.762;2023-07-24T08:54:36;5.53;;;2.80;;
72639;SDS011;60683;51.730;8.762;2023-07-24T08:57:06;6.97;;;2.72;;
72639;SDS011;60683;51.730;8.762;2023-07-24T08:59:34;5.57;;;2.75;;
72639;SDS011;60683;51.730;8.762;2023-07-24T09:02:02;5.25;;;2.33;;
72639;SDS011;60683;51.730;8.762;2023-07-24T09:04:29;4.88;;;2.22;;
72639;SDS011;60683;51.730;8.762;2023-07-24T09:06:57;5.78;;;2.90;;
72639;SDS011;60683;51.730;8.762;2023-07-24T09:09:28;4.35;;;2.22;;
72639;SDS011;60683;51.730;8.762;2023-07-24T09:11:58;6.45;;;2.20;;
72639;SDS011;60683;51.730;8.762;2023-07-24T09:14:26;4.97;;;2.20;;
72639;SDS011;60683;51.730;8.762;2023-07-24T09:19:30;5.40;;;2.08;;
72639;SDS011;60683;51.730;8.762;2023-07-24T09:22:07;5.47;;;2.72;;
72639;SDS011;60683;51.730;8.762;2023-07-24T09:24:34;5.90;;;2.63;;
72639;SDS011;60683;51.730;8.762;2023-07-24T09:27:04;5.68;;;2.10;;
72639;SDS011;60683;51.730;8.762;2023-07-24T09:29:33;6.15;;;2.88;;
72639;SDS011;60683;51.730;8.762;2023-07-24T09:32:01;7.05;;;2.80;;
72639;SDS011;60683;51.730;8.762;2023-07-24T09:34:28;4.05;;;2.42;;
72639;SDS011;60683;51.730;8.762;2023-07-24T09:36:56;5.03;;;2.15;;
72639;SDS011;60683;51.730;8.762;2023-07-24T09:39:23;5.32;;;2.83;;
72639;SDS011;60683;51.730;8.762;2023-07-24T09:41:51;6.82;;;3.47;;
72639;SDS011;60683;51.730;8.762;2023-07-24T09:44:20;5.35;;;2.60;;
72639;SDS011;60683;51.730;8.762;2023-07-24T09:46:47;6.13;;;2.85;;
72639;SDS011;60683;51.730;8.762;2023-07-24T09:49:15;4.35;;;2.20;;
72639;SDS011;60683;51.730;8.762;2023-07-24T09:51:42;5.78;;;2.70;;
72639;SDS011;60683;51.730;8.762;2023-07-24T09:54:15;6.00;;;2.60;;
72639;SDS011;60683;51.730;8.762;2023-07-24T09:56:49;5.38;;;2.47;;
72639;SDS011;60683;51.730;8.762;2023-07-24T09:59:18;6.20;;;2.50;;
72639;SDS011;60683;51.730;8.762;2023-07-24T10:01:48;5.05;;;2.42;;
72639;SDS011;60683;51.730;8.762;2023-07-24T10:04:17;5.70;;;2.35;;
72639;SDS011;60683;51.730;8.762;2023-07-24T10:06:45;5.22;;;2.45;;
72639;SDS011;60683;51.730;8.762;2023-07-24T10:09:14;3.95;;;1.80;;
72639;SDS011;60683;51.730;8.762;2023-07-24T10:11:45;6.47;;;2.67;;
72639;SDS011;60683;51.730;8.762;2023-07-24T10:14:12;4.95;;;2.25;;
72639;SDS011;60683;51.730;8.762;2023-07-24T10:16:41;4.20;;;1.95;;
72639;SDS011;60683;51.730;8.762;2023-07-24T10:19:12;3.58;;;1.60;;
72639;SDS011;60683;51.730;8.762;2023-07-24T10:21:44;4.68;;;2.17;;
72639;SDS011;60683;51.730;8.762;2023-07-24T10:24:13;5.88;;;2.55;;
72639;SDS011;60683;51.730;8.762;2023-07-24T10:26:41;5.57;;;2.17;;
72639;SDS011;60683;51.730;8.762;2023-07-24T10:29:09;5.55;;;2.28;;
72639;SDS011;60683;51.730;8.762;2023-07-24T10:31:37;4.75;;;2.10;;
72639;SDS011;60683;51.730;8.762;2023-07-24T10:34:06;5.57;;;2.40;;
72639;SDS011;60683;51.730;8.762;2023-07-24T10:36:34;4.47;;;2.33;;
72639;SDS011;60683;51.730;8.762;2023-07-24T10:39:02;4.85;;;2.25;;
72639;SDS011;60683;51.730;8.762;2023-07-24T10:41:36;4.05;;;1.88;;
72639;SDS011;60683;51.730;8.762;2023-07-24T10:44:04;6.57;;;3.03;;
72639;SDS011;60683;51.730;8.762;2023-07-24T10:46:35;4.30;;;2.53;;
72639;SDS011;60683;51.730;8.762;2023-07-24T10:49:03;5.63;;;2.25;;
72639;SDS011;60683;51.730;8.762;2023-07-24T10:51:32;5.22;;;2.60;;
72639;SDS011;60683;51.730;8.762;2023-07-24T10:54:02;4.32;;;2.00;;
72639;SDS011;60683;51.730;8.762;2023-07-24T10:56:30;4.40;;;2.10;;
72639;SDS011;60683;51.730;8.762;2023-07-24T10:59:01;5.90;;;2.85;;
72639;SDS011;60683;51.730;8.762;2023-07-24T11:01:31;3.67;;;1.55;;
72639;SDS011;60683;51.730;8.762;2023-07-24T11:03:59;4.03;;;1.83;;
72639;SDS011;60683;51.730;8.762;2023-07-24T11:06:26;3.38;;;1.77;;
72639;SDS011;60683;51.730;8.762;2023-07-24T11:08:57;4.03;;;1.77;;
72639;SDS011;60683;51.730;8.762;2023-07-24T11:11:29;5.80;;;2.10;;
72639;SDS011;60683;51.730;8.762;2023-07-24T11:13:57;5.70;;;1.77;;
72639;SDS011;60683;51.730;8.762;2023-07-24T11:16:25;7.03;;;2.58;;
72639;SDS011;60683;51.730;8.762;2023-07-24T11:18:53;4.45;;;1.92;;
72639;SDS011;60683;51.730;8.762;2023-07-24T11:21:22;4.45;;;1.83;;
72639;SDS011;60683;51.730;8.762;2023-07-24T11:23:50;4.15;;;1.70;;
72639;SDS011;60683;51.730;8.762;2023-07-24T11:26:20;4.72;;;1.90;;
72639;SDS011;60683;51.730;8.762;2023-07-24T11:28:48;4.18;;;1.77;;
72639;SDS011;60683;51.730;8.762;2023-07-24T11:31:15;4.38;;;1.95;;
72639;SDS011;60683;51.730;8.762;2023-07-24T11:33:45;3.67;;;2.10;;
72639;SDS011;60683;51.730;8.762;2023-07-24T11:36:14;4.32;;;1.65;;
72639;SDS011;60683;51.730;8.762;2023-07-24T11:38:42;4.43;;;1.83;;
72639;SDS011;60683;51.730;8.762;2023-07-24T11:41:11;4.70;;;1.98;;
72639;SDS011;60683;51.730;8.762;2023-07-24T11:43:46;3.72;;;1.50;;
72639;SDS011;60683;51.730;8.762;2023-07-24T11:46:22;4.28;;;1.63;;
72639;SDS011;60683;51.730;8.762;2023-07-24T11:48:50;3.97;;;1.58;;
72639;SDS011;60683;51.730;8.762;2023-07-24T11:51:19;4.57;;;2.00;;
72639;SDS011;60683;51.730;8.762;2023-07-24T11:53:46;4.10;;;1.80;;
72639;SDS011;60683;51.730;8.762;2023-07-24T11:56:14;4.07;;;1.80;;
72639;SDS011;60683;51.730;8.762;2023-07-24T11:58:43;4.47;;;1.70;;
72639;SDS011;60683;51.730;8.762;2023-07-24T12:01:11;4.68;;;1.92;;
72639;SDS011;60683;51.730;8.762;2023-07-24T12:03:39;4.20;;;1.80;;
72639;SDS011;60683;51.730;8.762;2023-07-24T12:06:13;4.38;;;1.77;;
72639;SDS011;60683;51.730;8.762;2023-07-24T12:08:41;4.35;;;1.60;;
72639;SDS011;60683;51.730;8.762;2023-07-24T12:11:15;4.45;;;1.92;;
72639;SDS011;60683;51.730;8.762;2023-07-24T12:13:43;4.60;;;2.00;;
72639;SDS011;60683;51.730;8.762;2023-07-24T12:16:11;8.20;;;2.05;;
72639;SDS011;60683;51.730;8.762;2023-07-24T12:18:39;4.28;;;1.65;;
72639;SDS011;60683;51.730;8.762;2023-07-24T12:21:06;3.78;;;1.70;;
72639;SDS011;60683;51.730;8.762;2023-07-24T12:23:34;4.55;;;2.00;;
72639;SDS011;60683;51.730;8.762;2023-07-24T12:26:01;5.63;;;2.35;;
72639;SDS011;60683;51.730;8.762;2023-07-24T12:28:28;4.40;;;1.95;;
72639;SDS011;60683;51.730;8.762;2023-07-24T12:30:56;4.88;;;2.08;;
72639;SDS011;60683;51.730;8.762;2023-07-24T12:33:24;4.95;;;2.03;;
72639;SDS011;60683;51.730;8.762;2023-07-24T12:35:52;3.50;;;1.75;;
72639;SDS011;60683;51.730;8.762;2023-07-24T12:38:20;3.47;;;1.67;;
72639;SDS011;60683;51.730;8.762;2023-07-24T12:40:50;4.85;;;2.15;;
72639;SDS011;60683;51.730;8.762;2023-07-24T12:43:17;4.90;;;2.20;;
72639;SDS011;60683;51.730;8.762;2023-07-24T12:45:45;5.05;;;2.58;;
72639;SDS011;60683;51.730;8.762;2023-07-24T12:48:12;4.93;;;2.30;;
72639;SDS011;60683;51.730;8.762;2023-07-24T12:50:42;5.07;;;2.15;;
72639;SDS011;60683;51.730;8.762;2023-07-24T12:53:09;6.35;;;2.38;;
72639;SDS011;60683;51.730;8.762;2023-07-24T12:55:36;4.28;;;1.95;;
72639;SDS011;60683;51.730;8.762;2023-07-24T12:58:03;4.72;;;1.95;;
72639;SDS011;60683;51.730;8.762;2023-07-24T13:00:31;3.85;;;2.00;;
72639;SDS011;60683;51.730;8.762;2023-07-24T13:02:58;4.25;;;2.08;;
72639;SDS011;60683;51.730;8.762;2023-07-24T13:05:26;3.45;;;1.80;;
72639;SDS011;60683;51.730;8.762;2023-07-24T13:07:54;4.20;;;2.25;;
72639;SDS011;60683;51.730;8.762;2023-07-24T13:10:22;5.13;;;1.92;;
72639;SDS011;60683;51.730;8.762;2023-07-24T13:12:49;4.60;;;2.08;;
72639;SDS011;60683;51.730;8.762;2023-07-24T13:15:17;4.18;;;1.98;;
72639;SDS011;60683;51.730;8.762;2023-07-24T13:17:44;5.70;;;2.30;;
72639;SDS011;60683;51.730;8.762;2023-07-24T13:20:11;6.88;;;2.38;;
72639;SDS011;60683;51.730;8.762;2023-07-24T13:22:39;5.13;;;2.50;;
72639;SDS011;60683;51.730;8.762;2023-07-24T13:25:08;5.93;;;3.28;;
72639;SDS011;60683;51.730;8.762;2023-07-24T13:27:36;7.15;;;3.47;;
72639;SDS011;60683;51.730;8.762;2023-07-24T13:30:04;5.32;;;3.22;;
72639;SDS011;60683;51.730;8.762;2023-07-24T13:32:31;5.40;;;3.25;;
72639;SDS011;60683;51.730;8.762;2023-07-24T13:34:59;4.97;;;3.13;;
72639;SDS011;60683;51.730;8.762;2023-07-24T13:37:26;7.82;;;3.80;;
72639;SDS011;60683;51.730;8.762;2023-07-24T13:39:54;6.53;;;3.25;;
72639;SDS011;60683;51.730;8.762;2023-07-24T13:42:23;6.85;;;3.50;;
72639;SDS011;60683;51.730;8.762;2023-07-24T13:44:51;10.70;;;4.70;;
72639;SDS011;60683;51.730;8.762;2023-07-24T13:47:18;7.65;;;4.55;;
72639;SDS011;60683;51.730;8.762;2023-07-24T13:49:47;7.85;;;3.88;;
72639;SDS011;60683;51.730;8.762;2023-07-24T13:52:14;6.13;;;3.25;;
72639;SDS011;60683;51.730;8.762;2023-07-24T13:54:42;5.60;;;2.30;;
72639;SDS011;60683;51.730;8.762;2023-07-24T13:57:10;4.68;;;2.05;;
72639;SDS011;60683;51.730;8.762;2023-07-24T13:59:38;5.35;;;2.13;;
72639;SDS011;60683;51.730;8.762;2023-07-24T14:02:06;5.00;;;2.42;;
72639;SDS011;60683;51.730;8.762;2023-07-24T14:04:34;5.82;;;3.28;;
72639;SDS011;60683;51.730;8.762;2023-07-24T14:07:01;6.10;;;2.58;;
72639;SDS011;60683;51.730;8.762;2023-07-24T14:09:29;4.97;;;2.63;;
72639;SDS011;60683;51.730;8.762;2023-07-24T14:11:58;5.25;;;2.60;;
72639;SDS011;60683;51.730;8.762;2023-07-24T14:14:26;5.28;;;2.50;;
72639;SDS011;60683;51.730;8.762;2023-07-24T14:16:55;5.30;;;2.92;;
72639;SDS011;60683;51.730;8.762;2023-07-24T14:19:23;6.28;;;2.53;;
72639;SDS011;60683;51.730;8.762;2023-07-24T14:21:50;4.75;;;2.58;;
72639;SDS011;60683;51.730;8.762;2023-07-24T14:24:18;3.85;;;1.88;;
72639;SDS011;60683;51.730;8.762;2023-07-24T14:26:46;5.15;;;2.05;;
72639;SDS011;60683;51.730;8.762;2023-07-24T14:29:14;4.97;;;1.83;;
72639;SDS011;60683;51.730;8.762;2023-07-24T14:31:42;4.43;;;1.88;;
72639;SDS011;60683;51.730;8.762;2023-07-24T14:34:12;4.25;;;2.22;;
72639;SDS011;60683;51.730;8.762;2023-07-24T14:36:39;4.78;;;2.17;;
72639;SDS011;60683;51.730;8.762;2023-07-24T14:39:07;3.70;;;1.80;;
72639;SDS011;60683;51.730;8.762;2023-07-24T14:41:34;4.25;;;2.55;;
72639;SDS011;60683;51.730;8.762;2023-07-24T14:44:03;4.75;;;2.33;;
72639;SDS011;60683;51.730;8.762;2023-07-24T14:46:30;4.15;;;1.92;;
72639;SDS011;60683;51.730;8.762;2023-07-24T14:48:58;3.75;;;1.60;;
72639;SDS011;60683;51.730;8.762;2023-07-24T14:51:27;4.38;;;2.22;;
72639;SDS011;60683;51.730;8.762;2023-07-24T14:53:55;3.70;;;1.73;;
72639;SDS011;60683;51.730;8.762;2023-07-24T14:56:22;3.95;;;1.98;;